Time;durP1;ratioP1;P1;durP2;ratioP2;P2;SDS_P1;SDS_P2;PMS_P1;PMS_P2;Temp;Humidity;BMP_temperature;BMP_pressure;BME280_temperature;BME280_humidity;BME280_pressure;Samples;Min_cycle;Max_cycle;Signal;HPM_P1;HPM_P2
2022/01/09 00:00:36;;;;;;;;;47.25;44.75;;;;;2.27;72.93;98904.50;5053696;28;9090;-80
2022/01/09 00:03:10;;;;;;;;;42.50;39.25;;;;;2.20;72.91;98897.50;5058494;28;8870;-78
2022/01/09 00:05:39;;;;;;;;;49.25;45.00;;;;;1.74;74.54;98897.31;5070125;28;8923;-76
2022/01/09 00:08:08;;;;;;;;;49.00;40.00;;;;;1.58;75.05;98903.75;5091370;27;9649;-78
2022/01/09 00:10:37;;;;;;;;;42.75;38.50;;;;;1.80;74.35;98900.03;5130116;27;8838;-79
2022/01/09 00:13:06;;;;;;;;;45.50;40.25;;;;;1.86;74.20;98900.16;5115043;27;8850;-77
2022/01/09 00:15:36;;;;;;;;;38.00;34.25;;;;;1.81;73.75;98893.19;5132312;27;8827;-78
2022/01/09 00:18:05;;;;;;;;;45.50;40.00;;;;;1.47;74.45;98895.78;5116997;27;8862;-75
2022/01/09 00:20:33;;;;;;;;;31.50;29.75;;;;;1.44;74.90;98898.28;5082709;27;8865;-77
2022/01/09 00:23:02;;;;;;;;;40.00;34.75;;;;;1.53;74.30;98902.78;5117110;27;8962;-76
2022/01/09 00:25:31;;;;;;;;;38.25;36.50;;;;;1.53;74.07;98890.81;5081278;27;8880;-77
2022/01/09 00:27:59;;;;;;;;;37.25;30.00;;;;;1.76;74.26;98885.38;5111489;27;8843;-75
2022/01/09 00:30:28;;;;;;;;;36.50;33.50;;;;;1.43;73.89;98903.38;5128935;27;8834;-80
2022/01/09 00:32:58;;;;;;;;;39.00;36.25;;;;;1.41;74.24;98895.63;5077428;27;8854;-79
2022/01/09 00:35:27;;;;;;;;;34.00;31.75;;;;;1.74;73.68;98900.75;5077489;27;8834;-78
2022/01/09 00:37:57;;;;;;;;;28.25;28.25;;;;;1.75;73.87;98899.03;5128804;27;8849;-76
2022/01/09 00:40:25;;;;;;;;;32.25;29.00;;;;;1.97;72.89;98884.09;5128617;27;8839;-76
2022/01/09 00:42:54;;;;;;;;;42.25;37.25;;;;;1.63;73.54;98894.47;5128617;27;8835;-75
2022/01/09 00:45:24;;;;;;;;;40.50;33.50;;;;;1.63;73.18;98881.63;5111567;27;8865;-78
2022/01/09 00:47:53;;;;;;;;;24.00;23.25;;;;;1.61;73.45;98875.59;5069737;28;8841;-78
2022/01/09 00:50:23;;;;;;;;;32.25;28.75;;;;;1.92;72.74;98873.72;5053042;28;9082;-77
2022/01/09 00:52:51;;;;;;;;;33.00;28.00;;;;;1.91;72.38;98872.88;5086369;28;8884;-76
2022/01/09 00:55:20;;;;;;;;;34.75;30.50;;;;;1.92;72.75;98878.88;5052902;28;8869;-78
2022/01/09 00:57:49;;;;;;;;;36.50;33.50;;;;;1.83;72.10;98879.50;5036411;28;8895;-78
2022/01/09 01:00:18;;;;;;;;;32.50;27.00;;;;;1.85;72.93;98883.03;5086434;28;8843;-77
2022/01/09 01:02:46;;;;;;;;;35.00;32.75;;;;;1.95;71.95;98869.53;5052276;28;9623;-78
2022/01/09 01:05:15;;;;;;;;;31.25;29.50;;;;;1.73;72.31;98873.28;5069315;28;8859;-78
2022/01/09 01:07:46;;;;;;;;;42.25;32.00;;;;;1.59;73.13;98881.50;5053159;28;8851;-80
2022/01/09 01:10:15;;;;;;;;;38.25;34.50;;;;;1.59;73.15;98868.66;5086592;28;8851;-78
2022/01/09 01:12:44;;;;;;;;;36.25;33.50;;;;;1.84;72.91;98865.84;5052564;28;8862;-78
2022/01/09 01:15:13;;;;;;;;;41.25;33.25;;;;;1.93;72.00;98866.06;5069377;28;8881;-80
2022/01/09 01:17:41;;;;;;;;;22.50;22.25;;;;;1.89;72.51;98860.78;5052414;28;8855;-79
2022/01/09 01:20:11;;;;;;;;;35.50;33.00;;;;;1.90;71.67;98858.25;5092186;28;8898;-76
2022/01/09 01:22:41;;;;;;;;;42.50;36.00;;;;;2.09;72.00;98843.25;5094659;28;8845;-78
2022/01/09 01:25:11;;;;;;;;;38.75;33.50;;;;;2.25;71.53;98852.16;5111294;28;8863;-79
2022/01/09 01:27:40;;;;;;;;;33.75;32.75;;;;;2.40;70.82;98847.38;5112810;28;8860;-76
2022/01/09 01:30:10;;;;;;;;;36.25;32.75;;;;;2.55;70.38;98844.22;5094194;28;8837;-77
2022/01/09 01:32:40;;;;;;;;;41.25;37.25;;;;;2.64;69.83;98843.53;5094615;28;8853;-78
2022/01/09 01:35:10;;;;;;;;;36.75;31.00;;;;;2.69;69.88;98849.66;5076321;28;8855;-77
2022/01/09 01:37:41;;;;;;;;;38.75;35.75;;;;;2.73;69.70;98839.44;5111007;28;8875;-77
2022/01/09 01:40:14;;;;;;;;;44.50;40.25;;;;;2.53;70.12;98833.03;5094183;28;8876;-77
2022/01/09 01:42:43;;;;;;;;;37.75;34.50;;;;;2.59;70.28;98829.69;5076076;28;8933;-78
2022/01/09 01:45:12;;;;;;;;;39.25;35.75;;;;;2.44;69.17;98815.72;5110977;28;8873;-78
2022/01/09 01:47:41;;;;;;;;;36.75;32.75;;;;;2.36;70.40;98816.38;5112469;28;8849;-79
2022/01/09 01:50:13;;;;;;;;;32.75;32.25;;;;;2.51;70.65;98815.00;5111320;28;8853;-79
2022/01/09 01:52:47;;;;;;;;;43.25;37.75;;;;;2.64;70.35;98800.63;5112827;27;8822;-78
2022/01/09 01:55:18;;;;;;;;;35.75;34.00;;;;;2.72;70.05;98793.94;5112737;27;8849;-80
2022/01/09 01:57:46;;;;;;;;;45.75;40.75;;;;;2.71;68.61;98794.78;5113372;27;8977;-77
2022/01/09 02:00:17;;;;;;;;;39.00;34.00;;;;;2.57;69.66;98798.81;5130598;27;8891;-78
2022/01/09 02:02:46;;;;;;;;;35.75;31.25;;;;;2.60;69.20;98801.44;5130871;27;8942;-79
2022/01/09 02:05:14;;;;;;;;;46.75;38.75;;;;;2.53;69.19;98791.84;5096553;27;8865;-78
2022/01/09 02:07:43;;;;;;;;;30.00;25.00;;;;;2.40;69.63;98785.63;5112995;27;8849;-78
2022/01/09 02:10:12;;;;;;;;;35.25;32.00;;;;;2.52;69.55;98787.56;5112817;27;8856;-79
2022/01/09 02:12:42;;;;;;;;;42.00;39.25;;;;;2.62;69.60;98780.88;5113025;27;8853;-78
2022/01/09 02:15:31;;;;;;;;;35.75;34.00;;;;;2.73;69.41;98776.78;5130131;27;8865;-76
2022/01/09 02:18:00;;;;;;;;;47.00;38.75;;;;;2.73;68.64;98782.78;5112729;27;8845;-76
2022/01/09 02:20:30;;;;;;;;;36.50;31.25;;;;;2.60;68.25;98780.84;5095788;27;8857;-76
2022/01/09 02:22:59;;;;;;;;;47.50;39.50;;;;;2.69;68.47;98785.31;5112849;27;8884;-78
2022/01/09 02:25:28;;;;;;;;;44.00;34.25;;;;;2.75;69.08;98779.41;5132210;27;8869;-78
2022/01/09 02:27:57;;;;;;;;;41.00;35.50;;;;;2.77;68.60;98776.00;5113749;27;9703;-76
2022/01/09 02:30:25;;;;;;;;;45.50;35.50;;;;;2.84;68.67;98772.69;5130212;27;8959;-79
2022/01/09 02:32:54;;;;;;;;;37.50;36.25;;;;;2.72;68.71;98755.34;5113811;27;8854;-79
2022/01/09 02:35:24;;;;;;;;;44.25;36.00;;;;;2.39;68.20;98758.13;5130641;27;8889;-77
2022/01/09 02:37:54;;;;;;;;;38.50;38.00;;;;;2.56;68.89;98750.75;5113988;27;8834;-76
2022/01/09 02:40:23;;;;;;;;;39.75;34.25;;;;;2.68;68.81;98747.50;5130489;27;8881;-78
2022/01/09 02:42:53;;;;;;;;;43.25;35.00;;;;;2.80;68.72;98739.13;5113635;27;8869;-78
2022/01/09 02:45:24;;;;;;;;;47.50;37.75;;;;;2.89;68.05;98736.72;5113474;27;8881;-77
2022/01/09 02:47:57;;;;;;;;;46.75;36.00;;;;;2.99;67.99;98740.34;5113569;27;8915;-79
2022/01/09 02:50:34;;;;;;;;;39.25;38.00;;;;;3.06;67.29;98743.03;5111743;27;8850;-77
2022/01/09 02:53:15;;;;;;;;;24.75;18.75;;;;;3.01;66.65;98738.66;5095433;27;8823;-77
2022/01/09 02:55:44;;;;;;;;;34.75;34.50;;;;;3.05;67.27;98741.28;5112420;27;8967;-76
2022/01/09 02:58:14;;;;;;;;;42.50;37.25;;;;;3.10;66.81;98736.22;5112095;27;8845;-77
2022/01/09 03:00:45;;;;;;;;;38.75;36.00;;;;;3.10;67.59;98731.06;5111920;27;8859;-76
2022/01/09 03:03:14;;;;;;;;;37.00;33.25;;;;;3.12;67.05;98726.81;5094855;27;8874;-77
2022/01/09 03:05:43;;;;;;;;;49.50;42.50;;;;;3.12;66.32;98719.94;5094990;27;8871;-78
2022/01/09 03:08:13;;;;;;;;;40.75;33.50;;;;;3.21;65.70;98718.34;5061059;27;8850;-77
2022/01/09 03:10:42;;;;;;;;;43.75;39.25;;;;;3.24;65.99;98718.41;5094502;27;8835;-79
2022/01/09 03:13:11;;;;;;;;;34.75;31.25;;;;;3.27;65.83;98711.59;5094895;27;8837;-78
2022/01/09 03:15:40;;;;;;;;;43.75;37.75;;;;;3.36;66.06;98710.00;5111433;27;9068;-77
2022/01/09 03:18:08;;;;;;;;;41.25;39.00;;;;;3.36;65.93;98697.97;5128644;27;8827;-79
2022/01/09 03:20:37;;;;;;;;;41.00;36.25;;;;;3.39;65.64;98698.03;5111427;27;8835;-77
2022/01/09 03:23:06;;;;;;;;;41.00;39.00;;;;;3.38;64.70;98690.25;5112818;27;8927;-80
2022/01/09 03:25:36;;;;;;;;;38.75;37.00;;;;;3.37;65.29;98688.53;5129713;27;8886;-77
2022/01/09 03:28:05;;;;;;;;;45.25;37.25;;;;;3.39;65.51;98692.88;5129771;27;8843;-78
2022/01/09 03:30:34;;;;;;;;;41.00;39.25;;;;;3.42;65.22;98687.78;5129804;27;8842;-78
2022/01/09 03:33:03;;;;;;;;;40.75;37.75;;;;;3.23;65.15;98684.06;5129445;27;8839;-76
2022/01/09 03:35:32;;;;;;;;;49.25;43.00;;;;;3.22;65.02;98691.75;5129536;27;8830;-78
2022/01/09 03:38:01;;;;;;;;;39.25;38.50;;;;;3.27;65.00;98690.09;5112462;27;8853;-77
2022/01/09 03:40:30;;;;;;;;;38.25;34.50;;;;;3.29;65.15;98701.31;5112134;27;9627;-78
2022/01/09 03:43:00;;;;;;;;;46.25;37.25;;;;;3.34;65.34;98693.66;5110835;27;8823;-79
2022/01/09 03:45:28;;;;;;;;;33.75;33.75;;;;;3.33;64.81;98690.22;5130773;27;8854;-77
2022/01/09 03:47:57;;;;;;;;;45.00;40.00;;;;;3.36;65.05;98689.38;5112249;27;8835;-79
2022/01/09 03:50:27;;;;;;;;;40.25;40.25;;;;;3.38;64.72;98688.53;5110532;27;9651;-77
2022/01/09 03:52:55;;;;;;;;;40.50;38.25;;;;;3.42;64.60;98682.63;5128118;27;8904;-79
2022/01/09 03:55:25;;;;;;;;;38.75;35.50;;;;;3.41;64.94;98683.44;5110789;27;8847;-76
2022/01/09 03:57:54;;;;;;;;;43.50;39.25;;;;;3.44;64.43;98680.91;5094341;27;8827;-79
2022/01/09 04:00:25;;;;;;;;;43.50;41.75;;;;;3.49;64.35;98671.53;5094019;27;9596;-78
2022/01/09 04:02:54;;;;;;;;;46.25;39.00;;;;;3.50;64.64;98668.13;5076699;27;8835;-75
2022/01/09 04:05:24;;;;;;;;;46.50;40.00;;;;;3.50;64.12;98675.00;5127798;27;8843;-76
2022/01/09 04:07:52;;;;;;;;;43.75;35.00;;;;;3.27;63.51;98675.53;5066642;28;8838;-75
2022/01/09 04:10:42;;;;;;;;;39.00;33.25;;;;;3.29;64.48;98671.25;5050038;28;9710;-80
2022/01/09 04:13:15;;;;;;;;;46.25;41.50;;;;;3.31;63.63;98669.56;5018100;28;8829;-78
2022/01/09 04:15:48;;;;;;;;;45.00;37.75;;;;;3.18;63.83;98674.53;5050084;28;8873;-79
2022/01/09 04:18:18;;;;;;;;;44.50;38.00;;;;;3.17;64.56;98676.22;5033489;28;8919;-79
2022/01/09 04:20:48;;;;;;;;;40.75;35.50;;;;;3.24;64.33;98677.19;5036601;28;8975;-78
2022/01/09 04:23:17;;;;;;;;;36.75;35.50;;;;;3.24;63.83;98682.34;5053093;28;8857;-82
2022/01/09 04:25:47;;;;;;;;;42.00;41.00;;;;;3.25;64.76;98676.31;5053019;28;8850;-81
2022/01/09 04:28:16;;;;;;;;;38.50;33.75;;;;;3.27;64.35;98670.38;5053473;28;8841;-80
2022/01/09 04:30:46;;;;;;;;;39.50;34.25;;;;;3.32;64.55;98668.72;5086723;28;8846;-80
2022/01/09 04:33:15;;;;;;;;;37.00;35.50;;;;;3.36;64.03;98673.91;5053318;28;8888;-77
2022/01/09 04:35:44;;;;;;;;;40.75;38.00;;;;;3.22;62.94;98673.72;5069675;28;8846;-78
2022/01/09 04:38:13;;;;;;;;;45.50;41.25;;;;;3.28;63.92;98669.50;5093335;27;8970;-76
2022/01/09 04:40:42;;;;;;;;;41.25;34.50;;;;;3.25;63.29;98671.19;5128716;27;8823;-76
2022/01/09 04:43:12;;;;;;;;;42.75;37.50;;;;;3.16;64.09;98671.94;5129835;27;8846;-77
2022/01/09 04:45:41;;;;;;;;;39.25;35.00;;;;;3.23;63.17;98667.72;5128398;27;8835;-78
2022/01/09 04:48:13;;;;;;;;;36.75;34.50;;;;;3.30;63.61;98660.09;5076697;27;8842;-78
2022/01/09 04:50:44;;;;;;;;;17.25;14.00;;;;;3.31;64.08;98655.81;5111627;27;9583;-77
2022/01/09 04:53:13;;;;;;;;;44.75;39.25;;;;;3.38;63.83;98654.19;5111367;27;8830;-76
2022/01/09 04:55:45;;;;;;;;;40.00;34.25;;;;;3.42;63.51;98651.69;5115335;27;8931;-80
2022/01/09 04:58:14;;;;;;;;;34.50;32.50;;;;;3.45;63.24;98654.28;5115602;27;8865;-79
2022/01/09 05:00:43;;;;;;;;;37.50;32.25;;;;;3.44;63.15;98650.00;5132457;27;8949;-80
2022/01/09 05:03:14;;;;;;;;;37.75;34.75;;;;;3.49;62.88;98648.31;5132228;27;8847;-76
2022/01/09 05:05:44;;;;;;;;;39.25;35.25;;;;;3.42;63.58;98638.81;5073197;28;8837;-78
2022/01/09 05:08:12;;;;;;;;;46.00;35.25;;;;;3.49;63.83;98645.75;4997317;28;8853;-79
2022/01/09 05:10:41;;;;;;;;;44.75;38.25;;;;;3.51;63.66;98640.63;4981198;28;8868;-76
2022/01/09 05:13:10;;;;;;;;;39.50;36.00;;;;;3.50;62.86;98641.47;5013422;28;8868;-78
2022/01/09 05:15:38;;;;;;;;;45.75;41.50;;;;;3.50;63.33;98647.50;5013448;28;8915;-79
2022/01/09 05:18:13;;;;;;;;;45.75;39.25;;;;;3.53;63.35;98643.22;5013433;28;8966;-75
2022/01/09 05:20:44;;;;;;;;;51.00;41.75;;;;;3.57;63.57;98632.97;5029474;28;8868;-79
2022/01/09 05:23:13;;;;;;;;;38.25;33.75;;;;;3.59;62.89;98633.88;5013210;28;8928;-81
2022/01/09 05:25:41;;;;;;;;;50.00;41.50;;;;;3.60;62.79;98627.00;5013113;28;9003;-79
2022/01/09 05:28:10;;;;;;;;;39.50;38.75;;;;;3.54;62.14;98629.50;4997437;28;8856;-76
2022/01/09 05:30:39;;;;;;;;;33.00;22.50;;;;;3.47;61.30;98623.38;5013138;28;8914;-80
2022/01/09 05:33:07;;;;;;;;;45.75;40.00;;;;;3.47;62.39;98638.84;5013009;28;9598;-76
2022/01/09 05:35:36;;;;;;;;;37.75;34.75;;;;;3.48;62.71;98626.00;4996649;28;8879;-78
2022/01/09 05:38:06;;;;;;;;;36.75;34.25;;;;;3.55;62.53;98636.38;5071441;28;8903;-77
2022/01/09 05:40:35;;;;;;;;;37.25;34.50;;;;;3.51;62.16;98632.88;5092784;28;8879;-78
2022/01/09 05:43:03;;;;;;;;;41.75;34.75;;;;;3.34;60.95;98627.50;5093057;28;8843;-78
2022/01/09 05:45:32;;;;;;;;;47.50;42.50;;;;;3.30;62.50;98631.75;5109709;28;9604;-77
2022/01/09 05:48:02;;;;;;;;;64.00;51.50;;;;;3.31;62.59;98624.91;5093174;28;8905;-76
2022/01/09 05:50:30;;;;;;;;;40.25;35.50;;;;;3.31;62.29;98632.63;5059749;28;8966;-78
2022/01/09 05:52:59;;;;;;;;;51.25;43.25;;;;;3.34;62.49;98632.66;5077919;27;8850;-76
2022/01/09 05:55:30;;;;;;;;;44.75;39.25;;;;;3.30;61.83;98624.03;5114323;27;8907;-78
2022/01/09 05:57:58;;;;;;;;;39.00;32.50;;;;;3.25;62.37;98622.22;5114592;27;9662;-79
2022/01/09 06:00:27;;;;;;;;;41.00;32.25;;;;;3.29;62.84;98624.88;5114411;27;8930;-80
2022/01/09 06:02:56;;;;;;;;;44.75;39.75;;;;;3.35;63.02;98618.94;5134708;27;8950;-80
2022/01/09 06:05:25;;;;;;;;;36.50;32.75;;;;;3.34;62.38;98614.63;5152727;27;8867;-76
2022/01/09 06:07:54;;;;;;;;;35.75;32.75;;;;;3.39;62.19;98609.56;5117939;27;8819;-79
2022/01/09 06:10:23;;;;;;;;;37.00;34.25;;;;;3.43;62.57;98612.16;5135139;27;8847;-76
2022/01/09 06:12:53;;;;;;;;;46.00;35.25;;;;;3.48;61.70;98610.53;5135089;27;8824;-83
2022/01/09 06:15:22;;;;;;;;;50.25;44.75;;;;;3.45;62.51;98609.63;5117953;27;8859;-78
2022/01/09 06:17:50;;;;;;;;;50.00;45.75;;;;;3.49;61.48;98603.66;5117633;27;9596;-78
2022/01/09 06:20:19;;;;;;;;;55.00;48.25;;;;;3.54;62.19;98609.75;5117735;27;8842;-76
2022/01/09 06:22:48;;;;;;;;;55.25;46.75;;;;;3.58;62.06;98600.34;5117648;27;8831;-77
2022/01/09 06:25:17;;;;;;;;;50.75;45.50;;;;;3.63;61.74;98596.06;5134821;27;8848;-78
2022/01/09 06:27:45;;;;;;;;;58.25;47.50;;;;;3.66;61.84;98585.81;5066747;27;8891;-77
2022/01/09 06:30:16;;;;;;;;;49.00;43.50;;;;;3.69;61.46;98588.44;5133977;27;8927;-76
2022/01/09 06:32:44;;;;;;;;;53.25;46.00;;;;;3.69;61.18;98591.00;5152721;27;8827;-78
2022/01/09 06:35:13;;;;;;;;;86.00;66.33;;;;;3.70;61.55;98590.16;5134305;27;8832;-77
2022/01/09 06:37:42;;;;;;;;;70.75;57.00;;;;;3.71;61.37;98584.16;5116880;27;9004;-78
2022/01/09 06:40:12;;;;;;;;;60.75;51.00;;;;;3.72;61.31;98593.59;5134005;27;8851;-79
2022/01/09 06:42:41;;;;;;;;;46.50;45.00;;;;;3.71;61.11;98597.06;5116886;27;8844;-76
2022/01/09 06:45:10;;;;;;;;;51.25;44.50;;;;;3.69;60.89;98593.59;5082885;27;8865;-77
2022/01/09 06:47:40;;;;;;;;;53.00;44.75;;;;;3.72;61.27;98603.91;5133961;27;8954;-78
2022/01/09 06:50:11;;;;;;;;;49.50;46.00;;;;;3.73;61.33;98608.25;5152347;27;8832;-79
2022/01/09 06:52:40;;;;;;;;;57.50;47.25;;;;;3.77;61.04;98604.84;5116746;27;8855;-75
2022/01/09 06:55:10;;;;;;;;;49.50;46.75;;;;;3.77;60.41;98601.41;5066169;27;8843;-81
2022/01/09 06:57:40;;;;;;;;;40.50;38.25;;;;;3.74;60.81;98594.50;5133595;27;8823;-78
2022/01/09 07:00:14;;;;;;;;;59.50;44.75;;;;;3.76;60.13;98597.09;5152416;27;8849;-79
2022/01/09 07:02:45;;;;;;;;;76.00;57.50;;;;;3.79;61.17;98600.56;5098873;27;8902;-78
2022/01/09 07:05:15;;;;;;;;;55.00;47.25;;;;;3.82;60.68;98592.88;5133546;27;8832;-80
2022/01/09 07:07:43;;;;;;;;;56.75;50.25;;;;;3.86;61.28;98589.47;5133106;27;9691;-81
2022/01/09 07:10:13;;;;;;;;;66.25;52.75;;;;;3.88;59.85;98587.78;5116177;27;8855;-79
2022/01/09 07:12:42;;;;;;;;;65.00;52.50;;;;;3.77;59.44;98594.53;5133125;27;8936;-78
2022/01/09 07:15:12;;;;;;;;;71.50;56.75;;;;;3.72;60.30;98591.03;5116330;27;8819;-77
2022/01/09 07:17:41;;;;;;;;;69.00;55.50;;;;;3.77;60.33;98586.81;5132901;27;8839;-77
2022/01/09 07:20:12;;;;;;;;;82.00;66.00;;;;;3.85;60.51;98574.84;5133237;27;8873;-76
2022/01/09 07:22:40;;;;;;;;;63.00;51.75;;;;;3.89;60.29;98568.00;5133399;27;9285;-79
2022/01/09 07:25:10;;;;;;;;;70.25;57.00;;;;;3.94;60.51;98566.34;5081119;27;8815;-79
2022/01/09 07:27:38;;;;;;;;;70.75;59.00;;;;;4.01;60.47;98568.16;5098397;27;8851;-81
2022/01/09 07:30:08;;;;;;;;;68.25;56.00;;;;;4.07;60.35;98565.63;5151702;27;8927;-79
2022/01/09 07:32:37;;;;;;;;;65.75;52.00;;;;;4.14;59.34;98556.22;5132972;27;8835;-77
2022/01/09 07:35:07;;;;;;;;;65.50;54.00;;;;;4.13;59.68;98548.47;5133452;27;8878;-80
2022/01/09 07:37:37;;;;;;;;;74.00;59.00;;;;;4.20;58.56;98547.69;5081467;27;9612;-76
2022/01/09 07:40:07;;;;;;;;;68.25;55.75;;;;;4.02;57.73;98559.53;5082114;27;8898;-80
2022/01/09 07:42:35;;;;;;;;;63.50;50.75;;;;;4.08;59.13;98553.56;5082103;27;8863;-79
2022/01/09 07:45:06;;;;;;;;;52.75;46.50;;;;;4.18;58.83;98559.69;5132962;27;8839;-77
2022/01/09 07:47:36;;;;;;;;;35.25;24.50;;;;;4.20;57.94;98550.25;5116354;27;8847;-77
2022/01/09 07:50:06;;;;;;;;;85.75;64.00;;;;;4.25;58.44;98533.09;5133144;27;8831;-78
2022/01/09 07:52:35;;;;;;;;;66.50;52.00;;;;;4.32;58.48;98542.63;5116166;27;8858;-78
2022/01/09 07:55:08;;;;;;;;;72.50;56.75;;;;;4.43;58.34;98551.31;5115667;27;8904;-76
2022/01/09 07:57:36;;;;;;;;;70.00;58.25;;;;;4.50;58.89;98547.06;5132613;27;8847;-76
2022/01/09 08:00:08;;;;;;;;;64.75;52.75;;;;;4.57;58.17;98543.66;5107299;28;8828;-77
2022/01/09 08:02:43;;;;;;;;;62.50;51.00;;;;;4.61;57.30;98541.97;5107188;28;8848;-77
2022/01/09 08:05:14;;;;;;;;;64.00;53.75;;;;;4.63;56.83;98541.13;5073171;28;8855;-76
2022/01/09 08:07:43;;;;;;;;;60.50;50.00;;;;;4.70;56.28;98542.03;5089285;28;9701;-77
2022/01/09 08:10:14;;;;;;;;;62.00;50.00;;;;;4.75;56.63;98524.00;5091454;28;8844;-79
2022/01/09 08:12:42;;;;;;;;;62.50;50.25;;;;;4.75;56.46;98526.59;5089596;28;8942;-78
2022/01/09 08:15:12;;;;;;;;;64.50;49.50;;;;;4.83;55.98;98519.72;5088994;28;8836;-77
2022/01/09 08:17:45;;;;;;;;;62.75;51.75;;;;;4.94;54.10;98514.63;5046185;28;8978;-80
2022/01/09 08:20:15;;;;;;;;;78.75;59.75;;;;;4.95;54.71;98517.19;5026025;28;8865;-80
2022/01/09 08:22:44;;;;;;;;;55.75;47.75;;;;;4.96;52.59;98507.75;4993628;28;8857;-80
2022/01/09 08:25:16;;;;;;;;;45.50;44.00;;;;;4.95;52.41;98509.44;5009698;28;8954;-77
2022/01/09 08:27:47;;;;;;;;;50.00;45.00;;;;;4.91;51.48;98510.28;5009821;28;9000;-77
2022/01/09 08:30:18;;;;;;;;;53.50;46.25;;;;;4.60;51.67;98504.09;5027592;28;8881;-80
2022/01/09 08:32:48;;;;;;;;;47.25;42.50;;;;;4.53;52.27;98505.78;5046133;28;9576;-76
2022/01/09 08:35:17;;;;;;;;;56.75;46.00;;;;;4.57;52.59;98509.25;5029040;28;8941;-79
2022/01/09 08:37:48;;;;;;;;;56.25;46.75;;;;;4.66;53.23;98502.41;5029382;28;9692;-78
2022/01/09 08:40:22;;;;;;;;;58.25;50.00;;;;;4.66;53.91;98506.72;4980712;28;8850;-76
2022/01/09 08:42:54;;;;;;;;;61.50;52.75;;;;;4.66;54.59;98509.31;5029498;28;8880;-78
2022/01/09 08:45:23;;;;;;;;;62.50;51.75;;;;;4.55;54.40;98516.09;5029519;28;9704;-77
2022/01/09 08:47:52;;;;;;;;;66.25;54.25;;;;;4.60;53.67;98517.88;5032776;28;8838;-78
2022/01/09 08:50:22;;;;;;;;;51.00;46.25;;;;;4.60;53.56;98515.28;5053905;28;8842;-78
2022/01/09 08:52:52;;;;;;;;;48.50;39.00;;;;;4.66;52.27;98517.91;5056762;28;8848;-78
2022/01/09 08:55:27;;;;;;;;;52.75;46.50;;;;;4.60;53.19;98510.13;5089385;28;9734;-78
2022/01/09 08:57:57;;;;;;;;;57.00;49.25;;;;;4.65;53.81;98515.31;5072800;28;8828;-77
2022/01/09 09:00:25;;;;;;;;;60.50;46.75;;;;;4.71;53.93;98507.63;5089575;28;8863;-77
2022/01/09 09:02:54;;;;;;;;;59.25;51.50;;;;;4.79;53.96;98505.94;5075390;27;9005;-79
2022/01/09 09:05:23;;;;;;;;;58.25;48.50;;;;;4.88;54.16;98506.00;5131400;27;8843;-82
2022/01/09 09:07:52;;;;;;;;;65.00;51.25;;;;;4.95;53.68;98506.88;5132063;27;8862;-80
2022/01/09 09:10:21;;;;;;;;;65.75;53.50;;;;;5.00;54.09;98512.06;5114558;27;8858;-80
2022/01/09 09:12:51;;;;;;;;;56.00;49.00;;;;;4.93;53.48;98499.97;5080757;27;8843;-78
2022/01/09 09:15:22;;;;;;;;;41.75;34.75;;;;;5.05;53.59;98505.22;5131895;27;8831;-77
2022/01/09 09:17:55;;;;;;;;;54.50;45.50;;;;;4.89;54.13;98497.38;5131513;27;8843;-78
2022/01/09 09:20:24;;;;;;;;;58.25;50.50;;;;;4.96;54.08;98493.13;5113944;27;8847;-81
2022/01/09 09:22:53;;;;;;;;;57.25;42.75;;;;;4.98;53.99;98488.81;5097618;27;9545;-79
2022/01/09 09:25:22;;;;;;;;;47.50;42.50;;;;;4.95;53.85;98487.94;5096516;27;8855;-77
2022/01/09 09:27:52;;;;;;;;;49.75;44.25;;;;;4.95;54.26;98485.34;5089065;28;8847;-76
2022/01/09 09:30:21;;;;;;;;;83.00;65.67;;;;;4.82;54.71;98482.72;5106514;28;8836;-78
2022/01/09 09:32:50;;;;;;;;;68.75;54.75;;;;;4.79;53.65;98474.09;5089116;28;8992;-77
2022/01/09 09:35:18;;;;;;;;;54.75;47.25;;;;;4.80;52.06;98471.53;5068769;28;8827;-78
2022/01/09 09:37:47;;;;;;;;;23.50;22.25;;;;;4.84;52.06;98472.41;5085650;28;9141;-80
2022/01/09 09:40:16;;;;;;;;;62.75;49.50;;;;;4.75;51.95;98478.38;5069186;28;8965;-78
2022/01/09 09:42:45;;;;;;;;;83.00;65.50;;;;;4.69;51.65;98476.63;5072367;28;8877;-77
2022/01/09 09:45:15;;;;;;;;;72.00;56.75;;;;;4.74;52.35;98473.19;5089505;28;8858;-79
2022/01/09 09:47:44;;;;;;;;;74.75;59.50;;;;;4.69;53.31;98476.63;5072617;28;8831;-77
2022/01/09 09:50:15;;;;;;;;;77.75;62.75;;;;;4.71;52.72;98470.59;5072575;28;9001;-78
2022/01/09 09:52:44;;;;;;;;;84.50;64.50;;;;;4.64;53.09;98469.69;5072156;28;8882;-77
2022/01/09 09:55:14;;;;;;;;;86.00;64.67;;;;;4.61;53.61;98470.56;5065378;28;8831;-78
2022/01/09 09:57:43;;;;;;;;;79.33;63.67;;;;;4.57;53.53;98462.75;5048284;28;8928;-79
2022/01/09 10:00:14;;;;;;;;;80.00;61.75;;;;;4.51;53.85;98461.00;5031314;28;8941;-79
2022/01/09 10:02:46;;;;;;;;;74.25;60.50;;;;;4.40;54.22;98455.78;5048296;28;8873;-81
2022/01/09 10:05:17;;;;;;;;;75.50;58.75;;;;;4.49;54.48;98461.00;5039778;28;9065;-79
2022/01/09 10:07:53;;;;;;;;;71.75;59.25;;;;;4.41;54.25;98448.91;5052046;28;8845;-76
2022/01/09 10:10:29;;;;;;;;;73.25;53.25;;;;;4.49;54.88;98445.50;5035182;28;8845;-76
2022/01/09 10:13:07;;;;;;;;;69.75;57.75;;;;;4.44;55.55;98436.91;5018129;28;8961;-78
2022/01/09 10:15:50;;;;;;;;;60.00;47.00;;;;;4.61;55.52;98434.41;5068666;28;8860;-76
2022/01/09 10:18:42;;;;;;;;;66.25;53.25;;;;;4.59;56.00;98433.50;5051917;28;8882;-80
2022/01/09 10:21:13;;;;;;;;;79.25;61.25;;;;;4.58;56.37;98444.72;5035107;28;8874;-77
2022/01/09 10:23:59;;;;;;;;;76.25;62.00;;;;;4.72;56.94;98431.84;5051528;28;8851;-77
2022/01/09 10:26:28;;;;;;;;;38.25;36.75;;;;;4.62;57.57;98430.97;5100068;27;8821;-79
2022/01/09 10:28:57;;;;;;;;;54.50;45.25;;;;;4.73;57.70;98427.59;5106722;27;8844;-77
2022/01/09 10:31:27;;;;;;;;;62.75;50.75;;;;;4.51;58.77;98434.34;5116667;27;8878;-81
2022/01/09 10:34:02;;;;;;;;;56.25;45.75;;;;;4.58;58.28;98423.19;5116937;27;8939;-80
2022/01/09 10:36:43;;;;;;;;;52.25;45.25;;;;;4.60;57.57;98416.31;5116841;27;9659;-81
2022/01/09 10:39:14;;;;;;;;;35.50;34.25;;;;;4.46;57.95;98411.94;5134051;27;8843;-77
2022/01/09 10:41:55;;;;;;;;;49.75;45.50;;;;;4.42;57.48;98412.78;5116980;27;8823;-78
2022/01/09 10:44:30;;;;;;;;;43.25;39.25;;;;;4.34;57.84;98411.88;5116738;27;8835;-76
2022/01/09 10:47:01;;;;;;;;;58.25;49.75;;;;;4.27;58.32;98413.56;5116790;27;8827;-77
2022/01/09 10:49:39;;;;;;;;;46.00;41.75;;;;;4.30;58.27;98408.41;5134128;27;8909;-78
2022/01/09 10:52:16;;;;;;;;;47.75;42.00;;;;;4.42;57.80;98409.31;5133367;27;8851;-77
2022/01/09 10:54:47;;;;;;;;;56.50;46.00;;;;;4.51;58.19;98400.78;5098582;27;8889;-79
2022/01/09 10:57:18;;;;;;;;;63.25;48.00;;;;;4.41;58.43;98399.88;5116185;27;8866;-79
2022/01/09 10:59:47;;;;;;;;;56.25;47.50;;;;;4.58;58.35;98402.53;5116264;27;9693;-78
2022/01/09 11:02:16;;;;;;;;;52.25;46.25;;;;;4.66;58.32;98399.13;5087645;28;8854;-79
2022/01/09 11:04:48;;;;;;;;;61.00;46.50;;;;;4.74;58.29;98394.00;5087835;28;8850;-77
2022/01/09 11:07:17;;;;;;;;;55.50;46.00;;;;;4.84;58.13;98400.09;5054200;28;8849;-76
2022/01/09 11:09:48;;;;;;;;;41.00;34.00;;;;;4.88;57.69;98389.75;5021545;28;8850;-78
2022/01/09 11:12:20;;;;;;;;;61.75;50.00;;;;;4.88;57.70;98394.06;5054248;28;8872;-77
2022/01/09 11:14:52;;;;;;;;;70.25;55.50;;;;;4.81;58.08;98395.75;5054033;28;8980;-78
2022/01/09 11:17:22;;;;;;;;;69.00;56.25;;;;;4.78;58.66;98387.13;5087632;28;8834;-77
2022/01/09 11:19:52;;;;;;;;;78.50;60.50;;;;;4.85;58.35;98394.91;5046844;28;8994;-77
2022/01/09 11:22:22;;;;;;;;;70.00;56.50;;;;;4.98;58.81;98389.78;5030530;28;8834;-77
2022/01/09 11:25:14;;;;;;;;;52.50;43.25;;;;;5.14;58.40;98388.09;5047251;28;8850;-77
2022/01/09 11:28:02;;;;;;;;;75.75;56.75;;;;;5.13;57.92;98387.25;5030465;28;8954;-78
2022/01/09 11:30:45;;;;;;;;;67.00;54.50;;;;;5.07;57.20;98390.69;5046712;28;8962;-77
2022/01/09 11:33:39;;;;;;;;;63.75;55.00;;;;;5.11;57.37;98388.97;5055117;28;8852;-77
2022/01/09 11:36:17;;;;;;;;;70.75;57.00;;;;;5.17;57.40;98378.63;5107792;28;8871;-75
2022/01/09 11:38:54;;;;;;;;;64.75;52.25;;;;;5.22;57.33;98370.91;5073447;28;8841;-78
2022/01/09 11:41:24;;;;;;;;;66.50;52.00;;;;;5.21;57.24;98364.00;5073748;28;8899;-79
2022/01/09 11:43:57;;;;;;;;;69.00;55.25;;;;;5.28;57.45;98366.59;5090534;28;8829;-79
2022/01/09 11:46:27;;;;;;;;;72.50;59.00;;;;;5.33;57.42;98369.22;5090685;28;8837;-77
2022/01/09 11:49:06;;;;;;;;;67.50;52.75;;;;;5.32;57.40;98356.28;5073883;28;8817;-78